createdAt,value
2019-02-23T00:00:29.120Z,99.99
2019-02-23T00:01:29.349Z,99.99
2019-02-23T00:02:29.352Z,99.99
2019-02-23T00:03:29.097Z,99.99
2019-02-23T00:04:29.348Z,99.99
2019-02-23T00:05:29.342Z,99.99
2019-02-23T00:06:32.480Z,99.99
2019-02-23T00:07:29.069Z,99.99
2019-02-23T00:08:29.065Z,99.99
2019-02-23T00:09:29.051Z,99.99
2019-02-23T00:10:29.267Z,99.99
2019-02-23T00:11:29.271Z,99.99
2019-02-23T00:12:29.282Z,99.99
2019-02-23T00:13:29.024Z,99.99
2019-02-23T00:14:29.247Z,99.99
2019-02-23T00:15:28.987Z,99.99
2019-02-23T00:16:28.964Z,99.99
2019-02-23T00:17:28.970Z,99.99
2019-02-23T00:18:29.199Z,99.99
2019-02-23T00:19:29.202Z,99.99
2019-02-23T00:20:29.181Z,99.99
2019-02-23T00:21:29.179Z,99.99
2019-02-23T00:22:29.166Z,99.99
2019-02-23T00:23:28.913Z,99.99
2019-02-23T00:24:29.167Z,99.99
2019-02-23T00:25:29.140Z,99.99
2019-02-23T00:26:28.877Z,99.99
2019-02-23T00:27:28.876Z,99.99
2019-02-23T00:28:29.115Z,99.99
2019-02-23T00:29:28.861Z,99.99
2019-02-23T00:30:28.844Z,99.99
2019-02-23T00:31:29.085Z,99.99
2019-02-23T00:32:29.090Z,99.99
2019-02-23T00:33:29.074Z,99.99
2019-02-23T00:34:29.073Z,99.99
2019-02-23T00:35:28.806Z,99.99
2019-02-23T00:36:29.061Z,99.99
2019-02-23T00:37:28.789Z,99.99
2019-02-23T00:38:29.063Z,99.99
2019-02-23T00:39:29.018Z,99.99
2019-02-23T00:40:28.773Z,99.99
2019-02-23T00:41:29.002Z,99.99
2019-02-23T00:42:29.061Z,99.99
2019-02-23T00:43:28.737Z,99.99
2019-02-23T00:44:28.977Z,99.99
2019-02-23T00:45:28.979Z,99.99
2019-02-23T00:46:28.958Z,99.99
2019-02-23T00:47:28.709Z,99.99
2019-02-23T00:48:28.940Z,99.99
2019-02-23T00:49:38.697Z,99.99
2019-02-23T00:50:28.952Z,99.99
2019-02-23T00:51:28.921Z,99.99
2019-02-23T00:52:28.904Z,99.99
2019-02-23T00:53:28.898Z,99.99
2019-02-23T00:54:28.635Z,99.99
2019-02-23T00:55:28.877Z,99.99
2019-02-23T00:56:28.869Z,99.99
2019-02-23T00:57:28.601Z,99.99
2019-02-23T00:58:28.599Z,99.99
2019-02-23T00:59:28.599Z,99.99
2019-02-23T01:00:28.832Z,99.99
2019-02-23T01:01:28.831Z,99.99
2019-02-23T01:02:28.568Z,99.99
2019-02-23T01:03:28.564Z,99.99
2019-02-23T01:04:28.802Z,99.99
2019-02-23T01:05:28.534Z,99.99
2019-02-23T01:06:28.538Z,99.99
2019-02-23T01:07:28.528Z,99.99
2019-02-23T01:08:28.509Z,99.99
2019-02-23T01:09:28.508Z,99.99
2019-02-23T01:10:28.751Z,99.99
2019-02-23T01:11:28.746Z,99.99
2019-02-23T01:12:28.722Z,99.99
2019-02-23T01:13:28.726Z,99.99
2019-02-23T01:14:28.707Z,99.99
2019-02-23T01:15:28.447Z,99.99
2019-02-23T01:16:28.442Z,99.99
2019-02-23T01:17:28.437Z,99.99
2019-02-23T01:18:28.672Z,99.99
2019-02-23T01:19:28.434Z,99.99
2019-02-23T01:20:28.403Z,99.99
2019-02-23T01:21:28.400Z,99.99
2019-02-23T01:22:28.382Z,99.99
2019-02-23T01:23:28.625Z,99.99
2019-02-23T01:24:28.614Z,99.99
2019-02-23T01:25:28.610Z,99.99
2019-02-23T01:26:28.600Z,99.99
2019-02-23T01:27:28.350Z,99.99
2019-02-23T01:28:28.597Z,99.99
2019-02-23T01:29:28.565Z,99.99
2019-02-23T01:30:28.560Z,99.99
2019-02-23T01:31:28.552Z,99.99
2019-02-23T01:32:28.559Z,99.99
2019-02-23T01:33:28.536Z,99.99
2019-02-23T01:34:28.526Z,99.99
2019-02-23T01:35:28.516Z,99.99
2019-02-23T01:36:28.504Z,99.99
2019-02-23T01:37:28.496Z,99.99
2019-02-23T01:38:28.233Z,99.99
2019-02-23T01:39:28.230Z,99.99
2019-02-23T01:40:28.475Z,99.99
2019-02-23T01:41:28.460Z,99.99
2019-02-23T01:42:28.454Z,99.99
2019-02-23T01:43:28.450Z,99.99
2019-02-23T01:44:28.194Z,99.99
2019-02-23T01:45:28.175Z,99.99
2019-02-23T01:46:28.418Z,99.99
2019-02-23T01:47:28.164Z,99.99
2019-02-23T01:48:28.397Z,99.99
2019-02-23T01:49:28.144Z,99.99
2019-02-23T01:50:28.142Z,99.99
2019-02-23T01:51:28.368Z,99.99
2019-02-23T01:52:28.356Z,99.99
2019-02-23T01:53:28.357Z,99.99
2019-02-23T01:54:28.099Z,99.99
2019-02-23T01:55:28.350Z,99.99
2019-02-23T01:56:28.071Z,99.99
2019-02-23T01:57:28.310Z,99.99
2019-02-23T01:58:28.054Z,99.99
2019-02-23T01:59:28.300Z,99.99
2019-02-23T02:00:28.285Z,99.99
2019-02-23T02:01:28.281Z,99.99
2019-02-23T02:02:28.263Z,99.99
2019-02-23T02:03:28.322Z,99.99
2019-02-23T02:04:28.000Z,99.99
2019-02-23T02:05:28.234Z,99.99
2019-02-23T02:06:27.980Z,99.99
2019-02-23T02:07:28.217Z,99.99
2019-02-23T02:08:27.957Z,99.99
2019-02-23T02:09:28.194Z,99.99
2019-02-23T02:10:28.185Z,99.99
2019-02-23T02:11:27.933Z,99.99
2019-02-23T02:12:27.920Z,99.99
2019-02-23T02:13:28.170Z,99.99
2019-02-23T02:14:27.922Z,99.99
2019-02-23T02:15:28.137Z,99.99
2019-02-23T02:16:28.136Z,99.99
2019-02-23T02:17:28.130Z,99.99
2019-02-23T02:18:27.873Z,99.99
2019-02-23T02:19:28.112Z,99.99
2019-02-23T02:20:28.098Z,99.99
2019-02-23T02:21:27.838Z,99.99
2019-02-23T02:22:28.084Z,99.99
2019-02-23T02:23:28.127Z,99.99
2019-02-23T02:24:27.801Z,99.99
2019-02-23T02:25:27.798Z,99.99
2019-02-23T02:26:28.043Z,99.99
2019-02-23T02:27:28.035Z,99.99
2019-02-23T02:28:28.031Z,99.99
2019-02-23T02:29:28.027Z,99.99
2019-02-23T02:30:27.760Z,99.99
2019-02-23T02:31:27.739Z,99.99
2019-02-23T02:32:27.725Z,99.99
2019-02-23T02:33:27.715Z,99.99
2019-02-23T02:34:27.961Z,99.99
2019-02-23T02:35:27.798Z,99.99
2019-02-23T02:36:27.944Z,99.99
2019-02-23T02:37:27.951Z,99.99
2019-02-23T02:38:27.664Z,99.99
2019-02-23T02:39:27.681Z,99.99
2019-02-23T02:40:27.900Z,99.99
2019-02-23T02:41:27.888Z,99.99
2019-02-23T02:42:27.628Z,99.99
2019-02-23T02:43:27.868Z,99.99
2019-02-23T02:44:27.861Z,99.99
2019-02-23T02:45:27.840Z,99.99
2019-02-23T02:46:27.835Z,99.99
2019-02-23T02:47:27.837Z,99.99
2019-02-23T02:48:27.821Z,99.99
2019-02-23T02:49:27.865Z,99.99
2019-02-23T02:50:27.562Z,99.99
2019-02-23T02:51:27.784Z,99.99
2019-02-23T02:52:27.776Z,99.99
2019-02-23T02:53:27.773Z,99.99
2019-02-23T02:54:27.514Z,99.99
2019-02-23T02:55:27.755Z,99.99
2019-02-23T02:56:27.732Z,99.99
2019-02-23T02:57:27.733Z,99.99
2019-02-23T02:58:27.467Z,99.99
2019-02-23T02:59:27.719Z,99.99
2019-02-23T03:00:27.708Z,99.99
2019-02-23T03:01:27.689Z,99.99
2019-02-23T03:02:27.670Z,99.99
2019-02-23T03:03:27.742Z,99.99
2019-02-23T03:04:27.677Z,99.99
2019-02-23T03:05:27.661Z,99.99
2019-02-23T03:06:27.644Z,99.99
2019-02-23T03:07:27.632Z,99.99
2019-02-23T03:08:27.610Z,99.99
2019-02-23T03:09:27.604Z,99.99
2019-02-23T03:10:27.615Z,99.99
2019-02-23T03:11:27.585Z,99.99
2019-02-23T03:12:27.329Z,99.99
2019-02-23T03:13:27.572Z,99.99
2019-02-23T03:14:27.558Z,99.99
2019-02-23T03:15:28.098Z,99.99
2019-02-23T03:16:27.531Z,99.99
2019-02-23T03:17:27.525Z,99.99
2019-02-23T03:18:27.278Z,99.99
2019-02-23T03:19:27.504Z,99.99
2019-02-23T03:20:38.614Z,99.99
2019-02-23T03:21:27.487Z,99.99
2019-02-23T03:22:27.237Z,99.99
2019-02-23T03:23:27.469Z,99.99
2019-02-23T03:24:27.479Z,99.99
2019-02-23T03:25:27.451Z,99.99
2019-02-23T03:26:27.442Z,99.99
2019-02-23T03:27:27.430Z,99.99
2019-02-23T03:28:27.462Z,99.99
2019-02-23T03:29:27.186Z,99.99
2019-02-23T03:30:27.413Z,99.99
2019-02-23T03:31:27.396Z,99.99
2019-02-23T03:32:27.139Z,99.99
2019-02-23T03:33:27.407Z,99.99
2019-02-23T03:34:27.351Z,99.99
2019-02-23T03:35:28.956Z,99.99
2019-02-23T03:36:27.337Z,99.99
2019-02-23T03:37:27.077Z,99.99
2019-02-23T03:38:27.065Z,99.99
2019-02-23T03:39:27.318Z,99.99
2019-02-23T03:40:27.331Z,99.99
2019-02-23T03:41:27.284Z,99.99
2019-02-23T03:42:27.278Z,99.99
2019-02-23T03:43:27.014Z,99.99
2019-02-23T03:44:26.999Z,99.99
2019-02-23T03:45:27.246Z,99.99
2019-02-23T03:46:27.236Z,99.99
2019-02-23T03:47:27.229Z,99.99
2019-02-23T03:48:27.209Z,99.99
2019-02-23T03:49:27.223Z,99.99
2019-02-23T03:50:27.196Z,99.99
2019-02-23T03:51:27.186Z,99.99
2019-02-23T03:52:26.939Z,99.99
2019-02-23T03:53:27.162Z,99.99
2019-02-23T03:54:27.157Z,99.99
2019-02-23T03:55:27.142Z,99.99
2019-02-23T03:56:26.885Z,99.99
2019-02-23T03:57:27.126Z,99.99
2019-02-23T03:58:27.104Z,99.99
2019-02-23T03:59:27.107Z,99.99
2019-02-23T04:00:27.095Z,99.99
2019-02-23T04:01:26.843Z,99.99
2019-02-23T04:02:27.070Z,99.99
2019-02-23T04:03:27.067Z,99.99
2019-02-23T04:04:27.049Z,99.99
2019-02-23T04:05:27.046Z,99.99
2019-02-23T04:06:26.782Z,99.99
2019-02-23T04:07:26.766Z,99.99
2019-02-23T04:08:27.009Z,99.99
2019-02-23T04:09:26.749Z,99.99
2019-02-23T04:10:26.983Z,99.99
2019-02-23T04:11:26.977Z,99.99
2019-02-23T04:12:26.977Z,99.99
2019-02-23T04:13:26.953Z,99.99
2019-02-23T04:14:26.953Z,99.99
2019-02-23T04:15:26.958Z,99.99
2019-02-23T04:16:26.931Z,99.99
2019-02-23T04:17:26.912Z,99.99
2019-02-23T04:18:26.929Z,99.99
2019-02-23T04:19:26.900Z,99.99
2019-02-23T04:20:26.899Z,99.99
2019-02-23T04:21:26.630Z,99.99
2019-02-23T04:22:26.885Z,99.99
2019-02-23T04:23:26.872Z,99.99
2019-02-23T04:24:26.603Z,99.99
2019-02-23T04:25:26.836Z,99.99
2019-02-23T04:26:26.579Z,99.99
2019-02-23T04:27:26.840Z,99.99
2019-02-23T04:28:26.569Z,99.99
2019-02-23T04:29:26.803Z,99.99
2019-02-23T04:30:26.533Z,99.99
2019-02-23T04:31:26.819Z,99.99
2019-02-23T04:32:26.774Z,99.99
2019-02-23T04:33:26.782Z,99.99
2019-02-23T04:34:26.748Z,99.99
2019-02-23T04:35:26.729Z,99.99
2019-02-23T04:36:26.476Z,99.99
2019-02-23T04:37:26.711Z,99.99
2019-02-23T04:38:26.702Z,99.99
2019-02-23T04:39:26.452Z,99.99
2019-02-23T04:40:26.448Z,99.99
2019-02-23T04:41:26.729Z,99.99
2019-02-23T04:42:26.663Z,99.99
2019-02-23T04:43:26.408Z,99.99
2019-02-23T04:44:26.639Z,99.99
2019-02-23T04:45:26.642Z,99.99
2019-02-23T04:46:26.623Z,99.99
2019-02-23T04:47:26.631Z,99.99
2019-02-23T04:48:26.603Z,99.99
2019-02-23T04:49:28.469Z,99.99
2019-02-23T04:50:26.335Z,99.99
2019-02-23T04:51:26.584Z,99.99
2019-02-23T04:52:26.418Z,99.99
2019-02-23T04:53:26.577Z,99.99
2019-02-23T04:54:26.303Z,99.99
2019-02-23T04:55:26.287Z,99.99
2019-02-23T04:56:26.533Z,99.99
2019-02-23T04:57:26.505Z,99.99
2019-02-23T04:58:26.497Z,99.99
2019-02-23T04:59:26.242Z,99.99
2019-02-23T05:00:26.495Z,99.99
2019-02-23T05:01:26.482Z,99.99
2019-02-23T05:02:26.228Z,99.99
2019-02-23T05:03:26.211Z,99.99
2019-02-23T05:04:26.192Z,99.99
2019-02-23T05:05:26.437Z,99.99
2019-02-23T05:06:26.710Z,99.99
2019-02-23T05:07:26.431Z,99.99
2019-02-23T05:08:26.171Z,99.99
2019-02-23T05:09:26.151Z,99.99
2019-02-23T05:10:26.156Z,99.99
2019-02-23T05:11:26.388Z,99.99
2019-02-23T05:12:26.134Z,99.99
2019-02-23T05:13:26.121Z,99.99
2019-02-23T05:14:26.347Z,99.99
2019-02-23T05:15:26.115Z,99.99
2019-02-23T05:16:26.329Z,99.99
2019-02-23T05:17:26.072Z,99.99
2019-02-23T05:18:26.061Z,99.99
2019-02-23T05:19:26.073Z,99.99
2019-02-23T05:20:26.037Z,99.99
2019-02-23T05:21:29.068Z,99.99
2019-02-23T05:22:26.280Z,99.99
2019-02-23T05:23:27.247Z,99.99
2019-02-23T05:24:26.009Z,99.99
2019-02-23T05:25:26.127Z,99.99
2019-02-23T05:26:26.213Z,99.99
2019-02-23T05:27:25.957Z,99.99
2019-02-23T05:28:26.206Z,99.99
2019-02-23T05:29:26.202Z,99.99
2019-02-23T05:30:25.931Z,99.99
2019-02-23T05:31:25.927Z,99.99
2019-02-23T05:32:25.917Z,99.99
2019-02-23T05:33:26.135Z,99.99
2019-02-23T05:34:25.888Z,99.99
2019-02-23T05:35:25.888Z,99.99
2019-02-23T05:36:26.120Z,99.99
2019-02-23T05:37:25.870Z,99.99
2019-02-23T05:38:26.105Z,99.99
2019-02-23T05:39:26.104Z,99.99
2019-02-23T05:40:26.089Z,99.99
2019-02-23T05:41:26.454Z,99.99
2019-02-23T05:42:26.084Z,99.99
2019-02-23T05:43:26.055Z,99.99
2019-02-23T05:44:25.794Z,99.99
2019-02-23T05:45:26.017Z,99.99
2019-02-23T05:46:26.025Z,99.99
2019-02-23T05:47:26.016Z,99.99
2019-02-23T05:48:26.005Z,99.99
2019-02-23T05:49:25.750Z,99.99
2019-02-23T05:50:25.986Z,99.99
2019-02-23T05:51:38.056Z,99.99
2019-02-23T05:52:25.806Z,99.99
2019-02-23T05:53:25.965Z,99.99
2019-02-23T05:54:25.959Z,99.99
2019-02-23T05:55:25.669Z,99.99
2019-02-23T05:56:25.921Z,99.99
2019-02-23T05:57:25.644Z,99.99
2019-02-23T05:58:25.659Z,99.99
2019-02-23T05:59:25.869Z,99.99
2019-02-23T06:00:25.605Z,99.99
2019-02-23T06:01:25.867Z,99.99
2019-02-23T06:02:25.840Z,99.99
2019-02-23T06:03:25.835Z,99.99
2019-02-23T06:04:25.591Z,99.99
2019-02-23T06:05:25.563Z,99.99
2019-02-23T06:06:25.795Z,99.99
2019-02-23T06:07:27.634Z,99.99
2019-02-23T06:08:25.834Z,99.99
2019-02-23T06:09:25.759Z,99.99
2019-02-23T06:10:25.749Z,99.99
2019-02-23T06:11:25.484Z,99.99
2019-02-23T06:12:25.735Z,99.99
2019-02-23T06:13:25.716Z,99.99
2019-02-23T06:14:25.695Z,99.99
2019-02-23T06:15:25.455Z,99.99
2019-02-23T06:16:25.435Z,99.99
2019-02-23T06:17:25.668Z,99.99
2019-02-23T06:18:25.414Z,99.99
2019-02-23T06:19:25.658Z,99.99
2019-02-23T06:20:25.637Z,99.99
2019-02-23T06:21:25.628Z,99.99
2019-02-23T06:22:25.615Z,99.99
2019-02-23T06:23:25.613Z,99.99
2019-02-23T06:24:25.630Z,99.99
2019-02-23T06:25:25.341Z,99.99
2019-02-23T06:26:25.582Z,99.99
2019-02-23T06:27:25.339Z,99.99
2019-02-23T06:28:25.626Z,99.99
2019-02-23T06:29:25.610Z,99.99
2019-02-23T06:30:25.295Z,99.99
2019-02-23T06:31:25.279Z,99.99
2019-02-23T06:32:25.513Z,99.99
2019-02-23T06:33:25.503Z,99.99
2019-02-23T06:34:25.246Z,99.99
2019-02-23T06:35:25.262Z,99.99
2019-02-23T06:36:25.511Z,99.99
2019-02-23T06:37:25.209Z,99.99
2019-02-23T06:38:25.453Z,99.99
2019-02-23T06:39:25.452Z,99.99
2019-02-23T06:40:25.458Z,99.99
2019-02-23T06:41:25.171Z,99.99
2019-02-23T06:42:25.155Z,99.99
2019-02-23T06:43:25.402Z,99.99
2019-02-23T06:44:25.421Z,99.99
2019-02-23T06:45:25.372Z,99.99
2019-02-23T06:46:25.358Z,99.99
2019-02-23T06:47:25.349Z,99.99
2019-02-23T06:48:25.399Z,99.99
2019-02-23T06:49:25.318Z,99.99
2019-02-23T06:50:25.083Z,99.99
2019-02-23T06:51:25.301Z,99.99
2019-02-23T06:52:25.043Z,99.99
2019-02-23T06:53:25.278Z,99.99
2019-02-23T06:54:25.269Z,99.99
2019-02-23T06:55:25.272Z,99.99
2019-02-23T06:56:25.248Z,99.99
2019-02-23T06:57:25.243Z,99.99
2019-02-23T06:58:25.332Z,99.99
2019-02-23T06:59:24.964Z,99.99
2019-02-23T07:00:25.002Z,99.99
2019-02-23T07:01:25.208Z,99.99
2019-02-23T07:02:24.933Z,99.99
2019-02-23T07:03:24.934Z,99.99
2019-02-23T07:04:25.159Z,99.99
2019-02-23T07:05:25.165Z,99.99
2019-02-23T07:06:24.901Z,99.99
2019-02-23T07:07:24.907Z,99.99
2019-02-23T07:08:25.141Z,99.99
2019-02-23T07:09:25.099Z,99.99
2019-02-23T07:10:24.842Z,99.99
2019-02-23T07:11:25.082Z,99.99
2019-02-23T07:12:25.072Z,99.99
2019-02-23T07:13:24.827Z,99.99
2019-02-23T07:14:24.819Z,99.99
2019-02-23T07:15:24.800Z,99.99
2019-02-23T07:16:25.038Z,99.99
2019-02-23T07:17:24.787Z,99.99
2019-02-23T07:18:24.768Z,99.99
2019-02-23T07:19:25.011Z,99.99
2019-02-23T07:20:24.999Z,99.99
2019-02-23T07:21:24.735Z,99.99
2019-02-23T07:22:24.965Z,99.96
2019-02-23T07:23:24.715Z,99.39
2019-02-23T07:24:25.004Z,98.35
2019-02-23T07:25:24.940Z,98.63
2019-02-23T07:26:24.927Z,97.87
2019-02-23T07:27:24.924Z,98.16
2019-02-23T07:28:24.905Z,97.97
2019-02-23T07:29:24.894Z,97.78
2019-02-23T07:30:24.649Z,98.06
2019-02-23T07:31:24.655Z,98.82
2019-02-23T07:32:24.886Z,99.99
2019-02-23T07:33:34.557Z,98.39
2019-02-23T07:34:24.634Z,95.79
2019-02-23T07:35:24.843Z,89.58
2019-02-23T07:36:24.588Z,84.34
2019-02-23T07:37:24.828Z,79.54
2019-02-23T07:38:24.567Z,76.44
2019-02-23T07:39:24.567Z,72.96
2019-02-23T07:40:24.572Z,69.73
2019-02-23T07:41:24.547Z,67.67
2019-02-23T07:42:24.797Z,65.86
2019-02-23T07:43:24.562Z,66.53
2019-02-23T07:44:24.528Z,66.62
2019-02-23T07:45:24.775Z,66.14
2019-02-23T07:46:24.527Z,65.67
2019-02-23T07:47:24.516Z,63.89
2019-02-23T07:48:24.861Z,62.94
2019-02-23T07:49:24.779Z,61.64
2019-02-23T07:50:24.504Z,61.25
2019-02-23T07:51:24.748Z,62.08
2019-02-23T07:52:28.961Z,62.08
2019-02-23T07:53:24.490Z,62.27
2019-02-23T07:54:24.749Z,61.64
2019-02-23T07:55:24.738Z,60.11
2019-02-23T07:56:24.741Z,58.72
2019-02-23T07:57:24.727Z,57.86
2019-02-23T07:58:24.726Z,56.74
2019-02-23T07:59:24.723Z,55.43
2019-02-23T08:00:24.732Z,55.15
2019-02-23T08:01:24.483Z,55.15
2019-02-23T08:02:25.823Z,54.03
2019-02-23T08:03:24.724Z,53.27
2019-02-23T08:04:24.473Z,52.69
2019-02-23T08:05:24.721Z,53.08
2019-02-23T08:06:24.469Z,53.62
2019-02-23T08:07:24.720Z,54.83
2019-02-23T08:08:24.731Z,55.79
2019-02-23T08:09:24.711Z,56.36
2019-02-23T08:10:24.716Z,55.6
2019-02-23T08:11:24.460Z,55.62
2019-02-23T08:12:24.472Z,54.77
2019-02-23T08:13:24.709Z,52.59
2019-02-23T08:14:24.551Z,52.31
2019-02-23T08:15:24.709Z,52.5
2019-02-23T08:16:24.450Z,52.22
2019-02-23T08:17:24.723Z,51.93
2019-02-23T08:18:24.718Z,52.12
2019-02-23T08:19:24.719Z,52.69
2019-02-23T08:20:25.095Z,52.69
2019-02-23T08:21:24.704Z,51.45
2019-02-23T08:22:24.452Z,52.12
2019-02-23T08:23:24.709Z,52.22
2019-02-23T08:24:24.699Z,51.74
2019-02-23T08:25:24.711Z,51.26
2019-02-23T08:26:24.705Z,50.71
2019-02-23T08:27:24.449Z,49.76
2019-02-23T08:28:24.702Z,49.57
2019-02-23T08:29:24.443Z,49.85
2019-02-23T08:30:24.463Z,49.85
2019-02-23T08:31:24.449Z,50.71
2019-02-23T08:32:24.708Z,50.71
2019-02-23T08:33:24.446Z,50.12
2019-02-23T08:34:24.451Z,50.31
2019-02-23T08:35:24.462Z,50.12
2019-02-23T08:36:26.212Z,49.26
2019-02-23T08:37:24.698Z,49.07
2019-02-23T08:38:24.744Z,50.02
2019-02-23T08:39:24.444Z,50.4
2019-02-23T08:40:24.467Z,51.33
2019-02-23T08:41:24.465Z,52.73
2019-02-23T08:42:24.694Z,54.8
2019-02-23T08:43:24.701Z,56.97
2019-02-23T08:44:24.692Z,59.03
2019-02-23T08:45:24.699Z,59.96
2019-02-23T08:46:24.688Z,61.19
2019-02-23T08:47:24.442Z,62.69
2019-02-23T08:48:24.438Z,63.13
2019-02-23T08:49:24.670Z,64.46
2019-02-23T08:50:24.667Z,65.09
2019-02-23T08:51:24.667Z,65.28
2019-02-23T08:52:24.675Z,66.71
2019-02-23T08:53:24.418Z,67.28
2019-02-23T08:54:24.414Z,67.85
2019-02-23T08:55:24.407Z,67.38
2019-02-23T08:56:24.400Z,67.28
2019-02-23T08:57:24.654Z,67.76
2019-02-23T08:58:24.657Z,67.19
2019-02-23T08:59:24.649Z,66.8
2019-02-23T09:00:24.628Z,65.28
2019-02-23T09:01:24.384Z,66.24
2019-02-23T09:02:24.728Z,66.61
2019-02-23T09:03:25.429Z,65.95
2019-02-23T09:04:24.372Z,66.05
2019-02-23T09:05:24.371Z,65.28
2019-02-23T09:06:24.618Z,65.92
2019-02-23T09:07:24.347Z,66.01
2019-02-23T09:08:24.652Z,67.09
2019-02-23T09:09:24.442Z,66.71
2019-02-23T09:10:24.603Z,65.19
2019-02-23T09:11:24.570Z,64.87
2019-02-23T09:12:24.322Z,64.4
2019-02-23T09:13:24.334Z,65.35
2019-02-23T09:14:24.313Z,66.2
2019-02-23T09:15:24.859Z,65.06
2019-02-23T09:16:24.545Z,64.11
2019-02-23T09:17:24.536Z,64.78
2019-02-23T09:18:24.304Z,63.54
2019-02-23T09:19:24.525Z,63.07
2019-02-23T09:20:31.787Z,62.12
2019-02-23T09:21:24.508Z,62.02
2019-02-23T09:22:24.512Z,61.55
2019-02-23T09:23:24.516Z,61.74
2019-02-23T09:24:24.505Z,61.36
2019-02-23T09:25:24.494Z,61.26
2019-02-23T09:26:24.480Z,60.31
2019-02-23T09:27:24.484Z,60.13
2019-02-23T09:28:24.505Z,60.88
2019-02-23T09:29:24.463Z,60.69
2019-02-23T09:30:24.211Z,60.22
2019-02-23T09:31:24.207Z,60.69
2019-02-23T09:32:24.439Z,59.84
2019-02-23T09:33:24.441Z,59.93
2019-02-23T09:34:24.190Z,60.31
2019-02-23T09:35:24.418Z,58.8
2019-02-23T09:36:24.417Z,58.73
2019-02-23T09:37:24.406Z,58.44
2019-02-23T09:38:24.420Z,58.25
2019-02-23T09:39:24.145Z,57.87
2019-02-23T09:40:24.401Z,58.44
2019-02-23T09:41:24.400Z,59.3
2019-02-23T09:42:24.391Z,59.39
2019-02-23T09:43:25.174Z,59.01
2019-02-23T09:44:24.385Z,57.97
2019-02-23T09:45:24.353Z,55.21
2019-02-23T09:46:24.358Z,54.74
2019-02-23T09:47:24.340Z,54.83
2019-02-23T09:48:24.345Z,54.74
2019-02-23T09:49:24.331Z,55.21
2019-02-23T09:50:24.079Z,54.93
2019-02-23T09:51:24.317Z,53.78
2019-02-23T09:52:24.315Z,53.41
2019-02-23T09:53:24.061Z,52.93
2019-02-23T09:54:24.309Z,53.12
2019-02-23T09:55:24.123Z,51.91
2019-02-23T09:56:24.285Z,51.62
2019-02-23T09:57:24.026Z,51.79
2019-02-23T09:58:24.343Z,51.34
2019-02-23T09:59:24.348Z,50.39
2019-02-23T10:00:24.257Z,49.82
2019-02-23T10:01:24.015Z,48.77
2019-02-23T10:02:23.998Z,48.68
2019-02-23T10:03:23.998Z,49.13
2019-02-23T10:04:24.306Z,48.87
2019-02-23T10:05:24.259Z,49.06
2019-02-23T10:06:24.220Z,49.15
2019-02-23T10:07:24.253Z,46.88
2019-02-23T10:08:24.211Z,46.97
2019-02-23T10:09:23.982Z,46.68
2019-02-23T10:10:24.206Z,46.01
2019-02-23T10:11:23.955Z,46.01
2019-02-23T10:12:24.184Z,45.35
2019-02-23T10:13:24.186Z,45.54
2019-02-23T10:14:23.943Z,45.92
2019-02-23T10:15:23.943Z,46.3
2019-02-23T10:16:24.189Z,46.01
2019-02-23T10:17:24.156Z,44.4
2019-02-23T10:18:24.154Z,44.02
2019-02-23T10:19:23.921Z,43.54
2019-02-23T10:20:23.911Z,43.54
2019-02-23T10:21:24.126Z,43.83
2019-02-23T10:22:24.126Z,43.28
2019-02-23T10:23:24.865Z,43.09
2019-02-23T10:24:23.924Z,42.33
2019-02-23T10:25:24.111Z,41.38
2019-02-23T10:26:23.861Z,42.43
2019-02-23T10:27:24.003Z,42.24
2019-02-23T10:28:24.109Z,40.62
2019-02-23T10:29:24.090Z,40.81
2019-02-23T10:30:24.077Z,42.33
2019-02-23T10:31:23.870Z,42.24
2019-02-23T10:32:24.069Z,41.76
2019-02-23T10:33:24.062Z,39.28
2019-02-23T10:34:24.056Z,39.38
2019-02-23T10:35:23.821Z,38.34
2019-02-23T10:36:24.050Z,39.28
2019-02-23T10:37:24.044Z,38.9
2019-02-23T10:38:24.041Z,39.12
2019-02-23T10:39:23.814Z,40.16
2019-02-23T10:40:24.035Z,38.26
2019-02-23T10:41:24.019Z,37.21
2019-02-23T10:42:23.795Z,36.93
2019-02-23T10:43:24.019Z,36.55
2019-02-23T10:44:24.011Z,36.55
2019-02-23T10:45:23.761Z,36.74
2019-02-23T10:46:24.006Z,36.64
2019-02-23T10:47:23.762Z,36.35
2019-02-23T10:48:23.990Z,35.69
2019-02-23T10:49:23.987Z,35.5
2019-02-23T10:50:23.994Z,35.69
2019-02-23T10:51:23.758Z,34.74
2019-02-23T10:52:23.999Z,34.55
2019-02-23T10:53:32.542Z,33.5
2019-02-23T10:54:23.956Z,33.78
2019-02-23T10:55:23.950Z,35.78
2019-02-23T10:56:23.962Z,43.11
2019-02-23T10:57:23.950Z,45.4
2019-02-23T10:58:23.946Z,48.44
2019-02-23T10:59:23.932Z,48.35
2019-02-23T11:00:23.940Z,47.37
2019-02-23T11:01:23.937Z,46.51
2019-02-23T11:02:23.913Z,45.66
2019-02-23T11:03:23.654Z,46.33
2019-02-23T11:04:24.011Z,46.99
2019-02-23T11:05:23.664Z,49.08
2019-02-23T11:06:23.648Z,49.37
2019-02-23T11:07:23.897Z,49.94
2019-02-23T11:08:23.896Z,49.94
2019-02-23T11:09:23.909Z,49.68
2019-02-23T11:10:23.905Z,48.82
2019-02-23T11:11:23.603Z,49.4
2019-02-23T11:12:23.610Z,48.35
2019-02-23T11:13:23.896Z,50.25
2019-02-23T11:14:23.873Z,49.87
2019-02-23T11:15:23.600Z,47.11
2019-02-23T11:16:23.844Z,45.01
2019-02-23T11:17:23.584Z,45.3
2019-02-23T11:18:23.840Z,45.87
2019-02-23T11:19:23.565Z,46.92
2019-02-23T11:20:23.564Z,46.25
2019-02-23T11:21:23.557Z,44.82
2019-02-23T11:22:23.560Z,44.73
2019-02-23T11:23:23.827Z,46.25
2019-02-23T11:24:23.950Z,47.02
2019-02-23T11:25:23.810Z,44.64
2019-02-23T11:26:23.774Z,41.23
2019-02-23T11:27:23.775Z,38.18
2019-02-23T11:28:23.788Z,32.83
2019-02-23T11:29:23.786Z,32.47
2019-02-23T11:30:23.770Z,31.4
2019-02-23T11:31:23.509Z,30.37
2019-02-23T11:32:23.755Z,30.28
2019-02-23T11:33:23.757Z,31.32
2019-02-23T11:34:23.743Z,30.28
2019-02-23T11:35:23.734Z,29.71
2019-02-23T11:36:23.482Z,28.47
2019-02-23T11:37:23.736Z,28.75
2019-02-23T11:38:23.757Z,29.52
2019-02-23T11:39:23.512Z,29.71
2019-02-23T11:40:26.078Z,29.14
2019-02-23T11:41:23.721Z,29.53
2019-02-23T11:42:23.443Z,31.04
2019-02-23T11:43:23.701Z,30.18
2019-02-23T11:44:23.692Z,29.99
2019-02-23T11:45:23.680Z,31.61
2019-02-23T11:46:23.426Z,31.9
2019-02-23T11:47:23.703Z,31.71
2019-02-23T11:48:23.421Z,32.95
2019-02-23T11:49:23.671Z,33.9
2019-02-23T11:50:23.647Z,33.04
2019-02-23T11:51:23.403Z,32.18
2019-02-23T11:52:23.661Z,32.56
2019-02-23T11:53:23.638Z,32.95
2019-02-23T11:54:23.386Z,31.61
2019-02-23T11:55:23.379Z,31.52
2019-02-23T11:56:23.372Z,30.37
2019-02-23T11:57:23.369Z,29.14
2019-02-23T11:58:23.367Z,28.85
2019-02-23T11:59:23.616Z,29.61
2019-02-23T12:00:23.346Z,29.14
2019-02-23T12:01:23.347Z,28.66
2019-02-23T12:02:23.355Z,28.29
2019-02-23T12:03:23.583Z,27.53
2019-02-23T12:04:23.589Z,27.23
2019-02-23T12:05:23.586Z,27.23
2019-02-23T12:06:23.326Z,28.85
2019-02-23T12:07:23.322Z,29.52
2019-02-23T12:08:23.309Z,28.19
2019-02-23T12:09:23.558Z,27.14
2019-02-23T12:10:23.310Z,27.51
2019-02-23T12:11:23.554Z,26.18
2019-02-23T12:12:23.529Z,25.99
2019-02-23T12:13:23.526Z,25.43
2019-02-23T12:14:25.804Z,25.24
2019-02-23T12:15:23.271Z,24.87
2019-02-23T12:16:23.525Z,23.72
2019-02-23T12:17:23.269Z,25.15
2019-02-23T12:18:23.506Z,24.87
2019-02-23T12:19:23.507Z,23.72
2019-02-23T12:20:23.505Z,22.68
2019-02-23T12:21:23.484Z,22.4
2019-02-23T12:22:23.233Z,22.02
2019-02-23T12:23:23.237Z,22.11
2019-02-23T12:24:23.492Z,22.78
2019-02-23T12:25:23.492Z,24.11
2019-02-23T12:26:23.494Z,25.16
2019-02-23T12:27:23.311Z,26.4
2019-02-23T12:28:23.214Z,27.07
2019-02-23T12:29:23.208Z,28.88
2019-02-23T12:30:23.456Z,29.45
2019-02-23T12:31:23.449Z,31.64
2019-02-23T12:32:23.448Z,33.36
2019-02-23T12:33:23.453Z,29.55
2019-02-23T12:34:23.437Z,29.74
2019-02-23T12:35:23.186Z,28.12
2019-02-23T12:36:23.174Z,27.36
2019-02-23T12:37:23.418Z,31.45
2019-02-23T12:38:23.164Z,29.74
2019-02-23T12:39:23.213Z,30.5
2019-02-23T12:40:23.178Z,32.2
2019-02-23T12:41:23.216Z,34.12
2019-02-23T12:42:23.411Z,35.74
2019-02-23T12:43:23.408Z,31.26
2019-02-23T12:44:23.405Z,31.64
2019-02-23T12:45:23.483Z,31.26
2019-02-23T12:46:23.402Z,29.55
2019-02-23T12:47:23.143Z,27.26
2019-02-23T12:48:23.121Z,26.31
2019-02-23T12:49:23.372Z,28.58
2019-02-23T12:50:23.360Z,31.05
2019-02-23T12:51:23.108Z,32.58
2019-02-23T12:52:23.355Z,31.34
2019-02-23T12:53:23.354Z,29.07